sensor_id;sensor_type;location;lat;lon;timestamp;pressure;altitude;pressure_sealevel;temperature;humidity
75219;BME280;63801;49.414;19.474;2023-04-08T00:01:03;93717.84;;;1.99;77.12
75219;BME280;63801;49.414;19.474;2023-04-08T00:03:03;93721.50;;;2.03;76.56
75219;BME280;63801;49.414;19.474;2023-04-08T00:05:04;93718.84;;;2.03;76.88
75219;BME280;63801;49.414;19.474;2023-04-08T00:07:05;93721.19;;;2.05;76.54
75219;BME280;63801;49.414;19.474;2023-04-08T00:09:06;93719.41;;;2.00;76.96
75219;BME280;63801;49.414;19.474;2023-04-08T00:11:06;93726.22;;;2.06;76.76
75219;BME280;63801;49.414;19.474;2023-04-08T00:13:07;93719.84;;;2.07;76.75
75219;BME280;63801;49.414;19.474;2023-04-08T00:15:07;93717.97;;;2.08;76.81
75219;BME280;63801;49.414;19.474;2023-04-08T00:17:08;93718.72;;;2.08;76.89
75219;BME280;63801;49.414;19.474;2023-04-08T00:19:08;93716.38;;;2.07;76.93
75219;BME280;63801;49.414;19.474;2023-04-08T00:21:08;93727.22;;;2.10;76.71
75219;BME280;63801;49.414;19.474;2023-04-08T00:23:09;93716.94;;;2.04;76.55
75219;BME280;63801;49.414;19.474;2023-04-08T00:25:09;93726.41;;;2.10;76.81
75219;BME280;63801;49.414;19.474;2023-04-08T00:27:09;93725.94;;;2.08;76.74
75219;BME280;63801;49.414;19.474;2023-04-08T00:29:10;93714.91;;;2.01;76.94
75219;BME280;63801;49.414;19.474;2023-04-08T00:31:10;93717.47;;;2.06;76.73
75219;BME280;63801;49.414;19.474;2023-04-08T00:33:10;93724.66;;;2.05;76.85
75219;BME280;63801;49.414;19.474;2023-04-08T00:35:11;93726.81;;;2.03;76.73
75219;BME280;63801;49.414;19.474;2023-04-08T00:37:12;93712.53;;;1.99;76.89
75219;BME280;63801;49.414;19.474;2023-04-08T00:39:13;93727.91;;;2.02;76.74
75219;BME280;63801;49.414;19.474;2023-04-08T00:41:13;93720.13;;;1.92;76.83
75219;BME280;63801;49.414;19.474;2023-04-08T00:43:15;93729.56;;;1.98;76.69
75219;BME280;63801;49.414;19.474;2023-04-08T00:45:15;93723.16;;;1.99;76.75
75219;BME280;63801;49.414;19.474;2023-04-08T00:47:16;93728.78;;;1.98;77.00
75219;BME280;63801;49.414;19.474;2023-04-08T00:49:17;93717.97;;;1.94;76.90
75219;BME280;63801;49.414;19.474;2023-04-08T00:51:18;93724.34;;;1.93;76.77
75219;BME280;63801;49.414;19.474;2023-04-08T00:53:18;93729.16;;;1.91;76.74
75219;BME280;63801;49.414;19.474;2023-04-08T00:55:19;93728.38;;;1.91;76.74
75219;BME280;63801;49.414;19.474;2023-04-08T00:57:19;93731.81;;;1.91;77.10
75219;BME280;63801;49.414;19.474;2023-04-08T00:59:20;93725.72;;;1.91;76.84
75219;BME280;63801;49.414;19.474;2023-04-08T01:04:20;93727.69;;;1.85;76.84
75219;BME280;63801;49.414;19.474;2023-04-08T01:06:56;93731.91;;;1.86;76.96
75219;BME280;63801;49.414;19.474;2023-04-08T01:08:59;93725.94;;;1.80;76.86
75219;BME280;63801;49.414;19.474;2023-04-08T01:11:01;93733.09;;;1.80;76.99
75219;BME280;63801;49.414;19.474;2023-04-08T01:13:08;93732.31;;;1.79;77.04
75219;BME280;63801;49.414;19.474;2023-04-08T01:15:11;93735.25;;;1.78;77.18
75219;BME280;63801;49.414;19.474;2023-04-08T01:17:11;93739.00;;;1.77;76.97
75219;BME280;63801;49.414;19.474;2023-04-08T01:19:20;93729.25;;;1.72;76.83
75219;BME280;63801;49.414;19.474;2023-04-08T01:21:24;93734.78;;;1.76;76.94
75219;BME280;63801;49.414;19.474;2023-04-08T01:25:37;93740.88;;;1.76;77.17
75219;BME280;63801;49.414;19.474;2023-04-08T01:27:38;93739.78;;;1.77;77.18
75219;BME280;63801;49.414;19.474;2023-04-08T01:29:39;93735.66;;;1.71;77.18
75219;BME280;63801;49.414;19.474;2023-04-08T01:31:41;93726.69;;;1.67;77.17
75219;BME280;63801;49.414;19.474;2023-04-08T01:33:44;93738.59;;;1.70;77.25
75219;BME280;63801;49.414;19.474;2023-04-08T01:35:45;93747.75;;;1.77;77.12
75219;BME280;63801;49.414;19.474;2023-04-08T01:37:46;93739.00;;;1.77;77.03
75219;BME280;63801;49.414;19.474;2023-04-08T01:39:49;93744.81;;;1.79;77.09
75219;BME280;63801;49.414;19.474;2023-04-08T01:41:52;93742.16;;;1.79;77.42
75219;BME280;63801;49.414;19.474;2023-04-08T01:43:54;93752.78;;;1.79;77.22
75219;BME280;63801;49.414;19.474;2023-04-08T01:45:54;93753.84;;;1.78;77.05
75219;BME280;63801;49.414;19.474;2023-04-08T01:47:59;93745.88;;;1.78;77.09
75219;BME280;63801;49.414;19.474;2023-04-08T01:50:00;93751.19;;;1.78;77.16
75219;BME280;63801;49.414;19.474;2023-04-08T01:52:01;93744.31;;;1.77;76.91
75219;BME280;63801;49.414;19.474;2023-04-08T01:54:02;93750.91;;;1.79;77.12
75219;BME280;63801;49.414;19.474;2023-04-08T01:56:06;93748.72;;;1.81;77.40
75219;BME280;63801;49.414;19.474;2023-04-08T01:58:11;93760.16;;;1.82;77.15
75219;BME280;63801;49.414;19.474;2023-04-08T02:00:15;93759.38;;;1.81;77.22
75219;BME280;63801;49.414;19.474;2023-04-08T02:02:19;93759.69;;;1.80;77.31
75219;BME280;63801;49.414;19.474;2023-04-08T02:04:20;93746.69;;;1.78;77.12
75219;BME280;63801;49.414;19.474;2023-04-08T02:06:21;93757.31;;;1.78;77.17
75219;BME280;63801;49.414;19.474;2023-04-08T02:08:21;93759.47;;;1.76;77.50
75219;BME280;63801;49.414;19.474;2023-04-08T02:10:22;93750.28;;;1.69;77.01
75219;BME280;63801;49.414;19.474;2023-04-08T02:12:22;93765.88;;;1.75;77.36
75219;BME280;63801;49.414;19.474;2023-04-08T02:14:22;93758.69;;;1.76;77.13
75219;BME280;63801;49.414;19.474;2023-04-08T02:16:38;93767.75;;;1.75;77.48
75219;BME280;63801;49.414;19.474;2023-04-08T02:18:44;93766.16;;;1.74;77.19
75219;BME280;63801;49.414;19.474;2023-04-08T02:20:53;93762.41;;;1.75;77.37
75219;BME280;63801;49.414;19.474;2023-04-08T02:23:02;93768.81;;;1.74;77.38
75219;BME280;63801;49.414;19.474;2023-04-08T02:25:08;93759.38;;;1.68;77.16
75219;BME280;63801;49.414;19.474;2023-04-08T02:27:10;93779.44;;;1.74;77.46
75219;BME280;63801;49.414;19.474;2023-04-08T02:29:12;93759.44;;;1.63;77.14
75219;BME280;63801;49.414;19.474;2023-04-08T02:31:16;93779.25;;;1.70;77.50
75219;BME280;63801;49.414;19.474;2023-04-08T02:33:21;93776.66;;;1.65;77.34
75219;BME280;63801;49.414;19.474;2023-04-08T02:35:22;93766.44;;;1.59;77.47
75219;BME280;63801;49.414;19.474;2023-04-08T02:37:23;93780.41;;;1.64;77.76
75219;BME280;63801;49.414;19.474;2023-04-08T02:39:33;93771.94;;;1.62;77.78
75219;BME280;63801;49.414;19.474;2023-04-08T02:41:33;93772.75;;;1.63;77.64
75219;BME280;63801;49.414;19.474;2023-04-08T02:43:34;93782.78;;;1.66;77.45
75219;BME280;63801;49.414;19.474;2023-04-08T02:45:40;93778.06;;;1.63;77.49
75219;BME280;63801;49.414;19.474;2023-04-08T02:47:41;93773.88;;;1.57;77.49
75219;BME280;63801;49.414;19.474;2023-04-08T02:49:41;93784.53;;;1.57;77.38
75219;BME280;63801;49.414;19.474;2023-04-08T02:51:42;93786.97;;;1.53;77.62
75219;BME280;63801;49.414;19.474;2023-04-08T02:53:42;93789.91;;;1.52;77.52
75219;BME280;63801;49.414;19.474;2023-04-08T02:55:42;93792.00;;;1.55;77.55
75219;BME280;63801;49.414;19.474;2023-04-08T02:57:43;93792.75;;;1.55;77.59
75219;BME280;63801;49.414;19.474;2023-04-08T02:59:43;93784.69;;;1.47;77.49
75219;BME280;63801;49.414;19.474;2023-04-08T03:01:43;93794.75;;;1.50;77.85
75219;BME280;63801;49.414;19.474;2023-04-08T03:03:43;93809.09;;;1.49;77.90
75219;BME280;63801;49.414;19.474;2023-04-08T03:05:44;93801.13;;;1.49;77.70
75219;BME280;63801;49.414;19.474;2023-04-08T03:07:44;93807.50;;;1.48;77.82
75219;BME280;63801;49.414;19.474;2023-04-08T03:09:45;93804.66;;;1.44;77.71
75219;BME280;63801;49.414;19.474;2023-04-08T03:11:45;93804.38;;;1.46;77.80
75219;BME280;63801;49.414;19.474;2023-04-08T03:13:51;93809.69;;;1.46;77.71
75219;BME280;63801;49.414;19.474;2023-04-08T03:15:51;93805.13;;;1.46;77.79
75219;BME280;63801;49.414;19.474;2023-04-08T03:17:52;93808.09;;;1.45;77.66
75219;BME280;63801;49.414;19.474;2023-04-08T03:19:52;93812.34;;;1.46;77.99
75219;BME280;63801;49.414;19.474;2023-04-08T03:21:52;93796.47;;;1.41;77.95
75219;BME280;63801;49.414;19.474;2023-04-08T03:23:53;93802.78;;;1.45;77.80
75219;BME280;63801;49.414;19.474;2023-04-08T03:25:53;93807.50;;;1.48;77.80
75219;BME280;63801;49.414;19.474;2023-04-08T03:27:54;93804.06;;;1.47;77.79
75219;BME280;63801;49.414;19.474;2023-04-08T03:29:54;93793.31;;;1.39;77.89
75219;BME280;63801;49.414;19.474;2023-04-08T03:31:57;93811.81;;;1.44;78.15
75219;BME280;63801;49.414;19.474;2023-04-08T03:33:57;93814.19;;;1.45;78.06
75219;BME280;63801;49.414;19.474;2023-04-08T03:35:58;93811.81;;;1.44;77.76
75219;BME280;63801;49.414;19.474;2023-04-08T03:37:58;93801.34;;;1.33;77.94
75219;BME280;63801;49.414;19.474;2023-04-08T03:39:58;93814.00;;;1.42;78.05
75219;BME280;63801;49.414;19.474;2023-04-08T03:41:59;93813.75;;;1.38;77.98
75219;BME280;63801;49.414;19.474;2023-04-08T03:44:00;93819.88;;;1.39;77.75
75219;BME280;63801;49.414;19.474;2023-04-08T03:46:00;93815.13;;;1.35;77.79
75219;BME280;63801;49.414;19.474;2023-04-08T03:48:00;93822.53;;;1.39;77.87
75219;BME280;63801;49.414;19.474;2023-04-08T03:50:01;93821.72;;;1.38;77.88
75219;BME280;63801;49.414;19.474;2023-04-08T03:52:01;93820.19;;;1.37;77.81
75219;BME280;63801;49.414;19.474;2023-04-08T03:54:01;93828.63;;;1.39;77.73
75219;BME280;63801;49.414;19.474;2023-04-08T03:56:02;93818.06;;;1.34;77.83
75219;BME280;63801;49.414;19.474;2023-04-08T03:58:03;93819.38;;;1.37;78.05
75219;BME280;63801;49.414;19.474;2023-04-08T04:00:04;93831.88;;;1.36;77.99
75219;BME280;63801;49.414;19.474;2023-04-08T04:02:05;93829.75;;;1.33;78.18
75219;BME280;63801;49.414;19.474;2023-04-08T04:04:05;93828.28;;;1.27;78.11
75219;BME280;63801;49.414;19.474;2023-04-08T04:06:06;93833.81;;;1.30;77.84
75219;BME280;63801;49.414;19.474;2023-04-08T04:08:06;93835.94;;;1.28;78.15
75219;BME280;63801;49.414;19.474;2023-04-08T04:10:08;93833.28;;;1.28;77.83
75219;BME280;63801;49.414;19.474;2023-04-08T04:12:09;93836.72;;;1.29;77.88
75219;BME280;63801;49.414;19.474;2023-04-08T04:14:10;93842.34;;;1.27;78.16
75219;BME280;63801;49.414;19.474;2023-04-08T04:16:10;93838.13;;;1.26;78.14
75219;BME280;63801;49.414;19.474;2023-04-08T04:18:10;93847.66;;;1.27;78.16
75219;BME280;63801;49.414;19.474;2023-04-08T04:20:11;93848.44;;;1.28;78.33
75219;BME280;63801;49.414;19.474;2023-04-08T04:22:11;93852.47;;;1.25;77.89
75219;BME280;63801;49.414;19.474;2023-04-08T04:24:12;93842.41;;;1.22;77.82
75219;BME280;63801;49.414;19.474;2023-04-08T04:26:13;93844.50;;;1.25;77.98
75219;BME280;63801;49.414;19.474;2023-04-08T04:28:14;93847.94;;;1.26;78.19
75219;BME280;63801;49.414;19.474;2023-04-08T04:30:15;93849.53;;;1.27;78.06
75219;BME280;63801;49.414;19.474;2023-04-08T04:32:16;93854.63;;;1.23;78.06
75219;BME280;63801;49.414;19.474;2023-04-08T04:34:16;93852.47;;;1.25;77.97
75219;BME280;63801;49.414;19.474;2023-04-08T04:36:17;93852.53;;;1.20;78.11
75219;BME280;63801;49.414;19.474;2023-04-08T04:38:18;93857.75;;;1.25;78.29
75219;BME280;63801;49.414;19.474;2023-04-08T04:40:18;93857.28;;;1.23;78.19
75219;BME280;63801;49.414;19.474;2023-04-08T04:42:19;93864.88;;;1.30;78.04
75219;BME280;63801;49.414;19.474;2023-04-08T04:44:19;93853.53;;;1.24;78.36
75219;BME280;63801;49.414;19.474;2023-04-08T04:46:20;93861.94;;;1.31;78.18
75219;BME280;63801;49.414;19.474;2023-04-08T04:48:20;93867.72;;;1.33;78.04
75219;BME280;63801;49.414;19.474;2023-04-08T04:50:20;93875.50;;;1.30;78.06
75219;BME280;63801;49.414;19.474;2023-04-08T04:52:21;93875.50;;;1.30;77.88
75219;BME280;63801;49.414;19.474;2023-04-08T04:54:21;93869.97;;;1.26;78.23
75219;BME280;63801;49.414;19.474;2023-04-08T04:56:21;93883.47;;;1.30;78.21
75219;BME280;63801;49.414;19.474;2023-04-08T04:58:22;93885.31;;;1.29;78.03
75219;BME280;63801;49.414;19.474;2023-04-08T05:00:22;93888.56;;;1.26;78.07
75219;BME280;63801;49.414;19.474;2023-04-08T05:02:22;93891.22;;;1.26;78.36
75219;BME280;63801;49.414;19.474;2023-04-08T05:04:23;93884.31;;;1.25;77.92
75219;BME280;63801;49.414;19.474;2023-04-08T05:06:24;93893.59;;;1.28;77.97
75219;BME280;63801;49.414;19.474;2023-04-08T05:08:25;93898.09;;;1.27;78.20
75219;BME280;63801;49.414;19.474;2023-04-08T05:10:25;93900.25;;;1.25;78.01
75219;BME280;63801;49.414;19.474;2023-04-08T05:12:26;93901.69;;;1.18;78.00
75219;BME280;63801;49.414;19.474;2023-04-08T05:14:29;93909.88;;;1.21;78.07
75219;BME280;63801;49.414;19.474;2023-04-08T05:16:29;93898.88;;;1.09;78.08
75219;BME280;63801;49.414;19.474;2023-04-08T05:18:30;93917.63;;;1.18;77.95
75219;BME280;63801;49.414;19.474;2023-04-08T05:20:30;93917.34;;;1.19;78.04
75219;BME280;63801;49.414;19.474;2023-04-08T05:22:31;93921.06;;;1.18;78.14
75219;BME280;63801;49.414;19.474;2023-04-08T05:24:31;93922.66;;;1.19;78.38
75219;BME280;63801;49.414;19.474;2023-04-08T05:26:32;93921.06;;;1.18;78.21
75219;BME280;63801;49.414;19.474;2023-04-08T05:28:32;93923.13;;;1.21;78.04
75219;BME280;63801;49.414;19.474;2023-04-08T05:30:32;93909.28;;;1.24;78.41
75219;BME280;63801;49.414;19.474;2023-04-08T05:32:33;93924.09;;;1.30;78.39
75219;BME280;63801;49.414;19.474;2023-04-08T05:34:33;93922.94;;;1.37;78.36
75219;BME280;63801;49.414;19.474;2023-04-08T05:36:33;93918.34;;;1.42;78.49
75219;BME280;63801;49.414;19.474;2023-04-08T05:38:34;93922.00;;;1.46;78.33
75219;BME280;63801;49.414;19.474;2023-04-08T05:40:34;93925.69;;;1.50;78.19
75219;BME280;63801;49.414;19.474;2023-04-08T05:42:35;93924.81;;;1.55;78.16
75219;BME280;63801;49.414;19.474;2023-04-08T05:44:35;93924.50;;;1.56;78.26
75219;BME280;63801;49.414;19.474;2023-04-08T05:46:36;93924.25;;;1.58;78.27
75219;BME280;63801;49.414;19.474;2023-04-08T05:48:37;93920.19;;;1.60;77.98
75219;BME280;63801;49.414;19.474;2023-04-08T05:50:37;93926.25;;;1.66;78.07
75219;BME280;63801;49.414;19.474;2023-04-08T05:52:42;93927.81;;;1.67;77.82
75219;BME280;63801;49.414;19.474;2023-04-08T05:54:44;93924.66;;;1.65;77.95
75219;BME280;63801;49.414;19.474;2023-04-08T05:56:44;93899.03;;;1.55;78.14
75219;BME280;63801;49.414;19.474;2023-04-08T05:58:45;93924.09;;;1.68;78.04
75219;BME280;63801;49.414;19.474;2023-04-08T06:00:46;93935.41;;;1.73;77.87
75219;BME280;63801;49.414;19.474;2023-04-08T06:02:46;93923.00;;;1.69;77.96
75219;BME280;63801;49.414;19.474;2023-04-08T06:04:46;93936.72;;;1.76;78.06
75219;BME280;63801;49.414;19.474;2023-04-08T06:06:47;93937.41;;;1.81;77.85
75219;BME280;63801;49.414;19.474;2023-04-08T06:08:47;93919.72;;;1.77;78.11
75219;BME280;63801;49.414;19.474;2023-04-08T06:10:51;93935.41;;;1.92;78.17
75219;BME280;63801;49.414;19.474;2023-04-08T06:12:51;93935.06;;;1.99;78.01
75219;BME280;63801;49.414;19.474;2023-04-08T06:14:55;93933.66;;;2.01;77.99
75219;BME280;63801;49.414;19.474;2023-04-08T06:16:55;93938.41;;;2.04;77.82
75219;BME280;63801;49.414;19.474;2023-04-08T06:18:56;93941.28;;;2.08;77.82
75219;BME280;63801;49.414;19.474;2023-04-08T06:20:56;93943.63;;;2.09;77.74
75219;BME280;63801;49.414;19.474;2023-04-08T06:22:58;93947.28;;;2.13;77.61
75219;BME280;63801;49.414;19.474;2023-04-08T06:24:58;93937.44;;;2.14;77.62
75219;BME280;63801;49.414;19.474;2023-04-08T06:26:59;93939.66;;;2.25;77.57
75219;BME280;63801;49.414;19.474;2023-04-08T06:28:59;93944.88;;;2.31;77.53
75219;BME280;63801;49.414;19.474;2023-04-08T06:31:01;93948.53;;;2.35;77.40
75219;BME280;63801;49.414;19.474;2023-04-08T06:33:01;93949.75;;;2.42;77.27
75219;BME280;63801;49.414;19.474;2023-04-08T06:35:01;93947.22;;;2.51;77.18
75219;BME280;63801;49.414;19.474;2023-04-08T06:37:02;93956.66;;;2.57;77.23
75219;BME280;63801;49.414;19.474;2023-04-08T06:39:03;93957.69;;;2.61;76.99
75219;BME280;63801;49.414;19.474;2023-04-08T06:41:06;93963.28;;;2.59;76.50
75219;BME280;63801;49.414;19.474;2023-04-08T06:43:07;93954.59;;;2.54;76.69
75219;BME280;63801;49.414;19.474;2023-04-08T06:45:07;93972.16;;;2.55;76.76
75219;BME280;63801;49.414;19.474;2023-04-08T06:47:08;93965.25;;;2.54;76.42
75219;BME280;63801;49.414;19.474;2023-04-08T06:49:08;93965.16;;;2.59;76.52
75219;BME280;63801;49.414;19.474;2023-04-08T06:51:08;93972.34;;;2.58;76.41
75219;BME280;63801;49.414;19.474;2023-04-08T06:53:10;93967.72;;;2.64;76.87
75219;BME280;63801;49.414;19.474;2023-04-08T06:55:10;93954.78;;;2.57;76.54
75219;BME280;63801;49.414;19.474;2023-04-08T06:57:11;93966.53;;;2.70;76.52
75219;BME280;63801;49.414;19.474;2023-04-08T06:59:11;93977.59;;;2.77;76.57
75219;BME280;63801;49.414;19.474;2023-04-08T07:01:11;93978.59;;;2.81;76.57
75219;BME280;63801;49.414;19.474;2023-04-08T07:03:12;93978.78;;;2.85;76.42
75219;BME280;63801;49.414;19.474;2023-04-08T07:05:12;93980.19;;;2.82;76.09
75219;BME280;63801;49.414;19.474;2023-04-08T07:07:13;93981.75;;;2.83;76.42
75219;BME280;63801;49.414;19.474;2023-04-08T07:09:13;93988.84;;;2.88;76.11
75219;BME280;63801;49.414;19.474;2023-04-08T07:11:13;93970.09;;;2.79;76.13
75219;BME280;63801;49.414;19.474;2023-04-08T07:13:14;93983.31;;;2.84;75.88
75219;BME280;63801;49.414;19.474;2023-04-08T07:15:15;93993.00;;;2.94;76.40
75219;BME280;63801;49.414;19.474;2023-04-08T07:17:15;93983.53;;;3.01;76.55
75219;BME280;63801;49.414;19.474;2023-04-08T07:19:16;93988.75;;;3.06;75.98
75219;BME280;63801;49.414;19.474;2023-04-08T07:21:16;93994.41;;;3.19;76.28
75219;BME280;63801;49.414;19.474;2023-04-08T07:23:17;94003.06;;;3.24;76.24
75219;BME280;63801;49.414;19.474;2023-04-08T07:25:17;93995.28;;;3.28;76.02
75219;BME280;63801;49.414;19.474;2023-04-08T07:27:17;94001.13;;;3.30;75.99
75219;BME280;63801;49.414;19.474;2023-04-08T07:29:18;94003.88;;;3.38;75.71
75219;BME280;63801;49.414;19.474;2023-04-08T07:31:18;94002.78;;;3.39;75.57
75219;BME280;63801;49.414;19.474;2023-04-08T07:33:18;94003.69;;;3.35;75.56
75219;BME280;63801;49.414;19.474;2023-04-08T07:35:19;94009.59;;;3.32;74.93
75219;BME280;63801;49.414;19.474;2023-04-08T07:37:23;94022.41;;;3.30;75.43
75219;BME280;63801;49.414;19.474;2023-04-08T07:39:23;94016.31;;;3.29;75.33
75219;BME280;63801;49.414;19.474;2023-04-08T07:41:24;94015.91;;;3.36;75.53
75219;BME280;63801;49.414;19.474;2023-04-08T07:43:24;94019.25;;;3.41;75.57
75219;BME280;63801;49.414;19.474;2023-04-08T07:45:24;94018.88;;;3.48;75.54
75219;BME280;63801;49.414;19.474;2023-04-08T07:47:25;94020.66;;;3.52;75.02
75219;BME280;63801;49.414;19.474;2023-04-08T07:49:25;94019.84;;;3.52;74.93
75219;BME280;63801;49.414;19.474;2023-04-08T07:51:25;94023.03;;;3.54;75.14
75219;BME280;63801;49.414;19.474;2023-04-08T07:53:26;94027.25;;;3.55;75.09
75219;BME280;63801;49.414;19.474;2023-04-08T07:55:27;94026.97;;;3.56;75.01
75219;BME280;63801;49.414;19.474;2023-04-08T07:57:27;94029.34;;;3.58;74.90
75219;BME280;63801;49.414;19.474;2023-04-08T07:59:28;94012.16;;;3.50;74.97
75219;BME280;63801;49.414;19.474;2023-04-08T08:01:28;94027.56;;;3.67;75.28
75219;BME280;63801;49.414;19.474;2023-04-08T08:03:30;94028.41;;;3.76;75.41
75219;BME280;63801;49.414;19.474;2023-04-08T08:05:30;94031.19;;;3.85;75.36
75219;BME280;63801;49.414;19.474;2023-04-08T08:07:30;94029.34;;;3.94;75.17
75219;BME280;63801;49.414;19.474;2023-04-08T08:09:31;94032.13;;;4.02;75.07
75219;BME280;63801;49.414;19.474;2023-04-08T08:11:31;94019.16;;;4.10;74.77
75219;BME280;63801;49.414;19.474;2023-04-08T08:13:33;94023.16;;;4.21;74.94
75219;BME280;63801;49.414;19.474;2023-04-08T08:15:33;94026.50;;;4.26;74.40
75219;BME280;63801;49.414;19.474;2023-04-08T08:17:34;94020.09;;;4.27;74.23
75219;BME280;63801;49.414;19.474;2023-04-08T08:19:34;94023.44;;;4.33;74.04
75219;BME280;63801;49.414;19.474;2023-04-08T08:21:36;94007.03;;;4.26;74.29
75219;BME280;63801;49.414;19.474;2023-04-08T08:23:36;94005.47;;;4.47;74.63
75219;BME280;63801;49.414;19.474;2023-04-08T08:25:37;94018.69;;;4.74;73.98
75219;BME280;63801;49.414;19.474;2023-04-08T08:27:37;94019.16;;;4.98;74.39
75219;BME280;63801;49.414;19.474;2023-04-08T08:29:40;94014.72;;;5.25;73.94
75219;BME280;63801;49.414;19.474;2023-04-08T08:31:40;94008.25;;;5.57;73.74
75219;BME280;63801;49.414;19.474;2023-04-08T08:33:40;94003.25;;;5.81;73.16
75219;BME280;63801;49.414;19.474;2023-04-08T08:35:41;94012.63;;;6.01;72.91
75219;BME280;63801;49.414;19.474;2023-04-08T08:37:41;94009.31;;;6.12;72.31
75219;BME280;63801;49.414;19.474;2023-04-08T08:39:42;94013.88;;;6.12;71.94
75219;BME280;63801;49.414;19.474;2023-04-08T08:41:42;94010.25;;;6.16;71.77
75219;BME280;63801;49.414;19.474;2023-04-08T08:43:42;94024.28;;;6.05;70.69
75219;BME280;63801;49.414;19.474;2023-04-08T08:45:44;94027.38;;;5.90;70.58
75219;BME280;63801;49.414;19.474;2023-04-08T08:47:44;94019.13;;;5.69;70.55
75219;BME280;63801;49.414;19.474;2023-04-08T08:49:46;94034.66;;;5.58;70.64
75219;BME280;63801;49.414;19.474;2023-04-08T08:51:47;94033.50;;;5.42;69.86
75219;BME280;63801;49.414;19.474;2023-04-08T08:53:48;94024.59;;;5.16;69.81
75219;BME280;63801;49.414;19.474;2023-04-08T08:55:51;94048.81;;;5.19;70.47
75219;BME280;63801;49.414;19.474;2023-04-08T08:57:52;94049.25;;;5.13;70.21
75219;BME280;63801;49.414;19.474;2023-04-08T08:59:52;94045.88;;;4.98;70.09
75219;BME280;63801;49.414;19.474;2023-04-08T09:01:53;94056.19;;;4.91;70.35
75219;BME280;63801;49.414;19.474;2023-04-08T09:04:19;94051.34;;;4.93;70.54
75219;BME280;63801;49.414;19.474;2023-04-08T09:06:21;94055.31;;;5.05;71.01
75219;BME280;63801;49.414;19.474;2023-04-08T09:08:35;94051.53;;;5.28;71.25
75219;BME280;63801;49.414;19.474;2023-04-08T09:10:36;94056.00;;;5.50;71.14
75219;BME280;63801;49.414;19.474;2023-04-08T09:12:52;94052.47;;;5.71;70.46
75219;BME280;63801;49.414;19.474;2023-04-08T09:15:06;94063.28;;;5.89;69.87
75219;BME280;63801;49.414;19.474;2023-04-08T09:17:07;94040.16;;;5.93;70.59
75219;BME280;63801;49.414;19.474;2023-04-08T09:19:09;94053.25;;;6.20;70.19
75219;BME280;63801;49.414;19.474;2023-04-08T09:21:10;94054.69;;;6.26;68.81
75219;BME280;63801;49.414;19.474;2023-04-08T09:23:11;94058.94;;;6.27;67.95
75219;BME280;63801;49.414;19.474;2023-04-08T09:25:31;94065.09;;;6.27;68.10
75219;BME280;63801;49.414;19.474;2023-04-08T09:27:33;94060.34;;;6.33;68.84
75219;BME280;63801;49.414;19.474;2023-04-08T09:29:34;94052.97;;;6.47;68.51
75219;BME280;63801;49.414;19.474;2023-04-08T09:31:38;94049.81;;;6.54;68.17
75219;BME280;63801;49.414;19.474;2023-04-08T09:33:41;94060.84;;;6.69;68.11
75219;BME280;63801;49.414;19.474;2023-04-08T09:35:43;94062.56;;;6.74;67.44
75219;BME280;63801;49.414;19.474;2023-04-08T09:37:46;94063.69;;;6.90;67.81
75219;BME280;63801;49.414;19.474;2023-04-08T09:39:47;94046.44;;;7.08;67.73
75219;BME280;63801;49.414;19.474;2023-04-08T09:41:49;94070.53;;;7.34;66.55
75219;BME280;63801;49.414;19.474;2023-04-08T09:43:52;94070.16;;;7.44;65.75
75219;BME280;63801;49.414;19.474;2023-04-08T09:45:53;94069.34;;;7.52;65.81
75219;BME280;63801;49.414;19.474;2023-04-08T09:48:07;94063.78;;;7.66;65.20
75219;BME280;63801;49.414;19.474;2023-04-08T09:50:09;94063.75;;;7.75;65.38
75219;BME280;63801;49.414;19.474;2023-04-08T09:52:12;94065.91;;;7.90;64.88
75219;BME280;63801;49.414;19.474;2023-04-08T09:54:18;94068.66;;;8.02;64.80
75219;BME280;63801;49.414;19.474;2023-04-08T09:56:20;94064.78;;;8.20;64.61
75219;BME280;63801;49.414;19.474;2023-04-08T09:58:27;94055.19;;;8.10;63.35
75219;BME280;63801;49.414;19.474;2023-04-08T10:00:38;94067.16;;;8.22;64.01
75219;BME280;63801;49.414;19.474;2023-04-08T10:03:01;94067.66;;;8.15;62.64
75219;BME280;63801;49.414;19.474;2023-04-08T10:05:06;94067.59;;;7.94;63.25
75219;BME280;63801;49.414;19.474;2023-04-08T10:07:07;94070.06;;;7.79;62.25
75219;BME280;63801;49.414;19.474;2023-04-08T10:09:08;94071.41;;;7.55;61.68
75219;BME280;63801;49.414;19.474;2023-04-08T10:11:09;94071.13;;;7.40;62.45
75219;BME280;63801;49.414;19.474;2023-04-08T10:13:10;94070.69;;;7.29;62.17
75219;BME280;63801;49.414;19.474;2023-04-08T10:15:21;94069.94;;;7.20;62.22
75219;BME280;63801;49.414;19.474;2023-04-08T10:17:28;94070.53;;;7.17;62.70
75219;BME280;63801;49.414;19.474;2023-04-08T10:19:36;94076.09;;;7.20;62.51
75219;BME280;63801;49.414;19.474;2023-04-08T10:21:40;94081.91;;;7.22;62.45
75219;BME280;63801;49.414;19.474;2023-04-08T10:23:59;94076.25;;;7.07;62.29
75219;BME280;63801;49.414;19.474;2023-04-08T10:26:31;94072.97;;;6.84;61.47
75219;BME280;63801;49.414;19.474;2023-04-08T10:28:33;94079.13;;;6.76;62.35
75219;BME280;63801;49.414;19.474;2023-04-08T10:32:39;94079.13;;;6.76;62.78
75219;BME280;63801;49.414;19.474;2023-04-08T10:34:50;94080.53;;;6.73;62.44
75219;BME280;63801;49.414;19.474;2023-04-08T10:36:54;94075.81;;;6.79;63.19
75219;BME280;63801;49.414;19.474;2023-04-08T10:38:55;94076.75;;;6.92;63.42
75219;BME280;63801;49.414;19.474;2023-04-08T10:40:56;94077.22;;;7.02;62.88
75219;BME280;63801;49.414;19.474;2023-04-08T10:42:58;94078.31;;;7.10;63.02
75219;BME280;63801;49.414;19.474;2023-04-08T10:44:59;94081.91;;;7.14;62.46
75219;BME280;63801;49.414;19.474;2023-04-08T10:47:00;94078.00;;;7.11;61.68
75219;BME280;63801;49.414;19.474;2023-04-08T10:49:01;94073.09;;;7.05;61.87
75219;BME280;63801;49.414;19.474;2023-04-08T10:51:02;94069.16;;;7.11;62.46
75219;BME280;63801;49.414;19.474;2023-04-08T10:53:03;94072.78;;;7.15;62.18